sensor_id;sensor_type;location;lat;lon;timestamp;temperature;humidity
56044;DHT22;41912;51.022;3.664;2023-03-14T00:01:54;12.20;99.90
56044;DHT22;41912;51.022;3.664;2023-03-14T00:04:19;12.20;99.90
56044;DHT22;41912;51.022;3.664;2023-03-14T00:06:45;12.10;99.90
56044;DHT22;41912;51.022;3.664;2023-03-14T00:09:13;12.10;99.90
56044;DHT22;41912;51.022;3.664;2023-03-14T00:11:38;12.00;99.90
56044;DHT22;41912;51.022;3.664;2023-03-14T00:14:04;12.00;99.90
56044;DHT22;41912;51.022;3.664;2023-03-14T00:16:30;11.90;99.90
56044;DHT22;41912;51.022;3.664;2023-03-14T00:18:55;11.90;99.90
56044;DHT22;41912;51.022;3.664;2023-03-14T00:21:23;11.90;99.90
56044;DHT22;41912;51.022;3.664;2023-03-14T00:23:48;12.00;99.90
56044;DHT22;41912;51.022;3.664;2023-03-14T00:26:16;11.90;99.90
56044;DHT22;41912;51.022;3.664;2023-03-14T00:28:43;11.80;99.90
56044;DHT22;41912;51.022;3.664;2023-03-14T00:31:12;11.80;99.90
56044;DHT22;41912;51.022;3.664;2023-03-14T00:33:37;11.90;99.90
56044;DHT22;41912;51.022;3.664;2023-03-14T00:36:08;11.80;99.90
56044;DHT22;41912;51.022;3.664;2023-03-14T00:38:35;11.80;99.90
56044;DHT22;41912;51.022;3.664;2023-03-14T00:41:09;11.80;99.90
56044;DHT22;41912;51.022;3.664;2023-03-14T00:43:35;11.70;99.90
56044;DHT22;41912;51.022;3.664;2023-03-14T00:46:01;11.60;99.90
56044;DHT22;41912;51.022;3.664;2023-03-14T00:48:27;11.60;99.90
56044;DHT22;41912;51.022;3.664;2023-03-14T00:50:53;11.60;99.90
56044;DHT22;41912;51.022;3.664;2023-03-14T00:53:18;11.60;99.90
56044;DHT22;41912;51.022;3.664;2023-03-14T00:55:44;11.70;99.90
56044;DHT22;41912;51.022;3.664;2023-03-14T00:58:12;11.70;99.90
56044;DHT22;41912;51.022;3.664;2023-03-14T01:00:39;11.80;99.90
56044;DHT22;41912;51.022;3.664;2023-03-14T01:03:05;11.80;99.90
56044;DHT22;41912;51.022;3.664;2023-03-14T01:05:31;11.80;99.90
56044;DHT22;41912;51.022;3.664;2023-03-14T01:07:57;11.80;99.90
56044;DHT22;41912;51.022;3.664;2023-03-14T01:10:23;11.80;99.90
56044;DHT22;41912;51.022;3.664;2023-03-14T01:12:49;11.80;99.90
56044;DHT22;41912;51.022;3.664;2023-03-14T01:15:15;11.80;99.90
56044;DHT22;41912;51.022;3.664;2023-03-14T01:17:41;11.80;99.90
56044;DHT22;41912;51.022;3.664;2023-03-14T01:20:08;11.70;99.90
56044;DHT22;41912;51.022;3.664;2023-03-14T01:22:35;11.70;99.90
56044;DHT22;41912;51.022;3.664;2023-03-14T01:25:01;11.70;99.90
56044;DHT22;41912;51.022;3.664;2023-03-14T01:27:27;11.70;99.90
56044;DHT22;41912;51.022;3.664;2023-03-14T01:29:53;11.70;99.90
56044;DHT22;41912;51.022;3.664;2023-03-14T01:32:18;11.70;99.90
56044;DHT22;41912;51.022;3.664;2023-03-14T01:34:44;11.70;99.90
56044;DHT22;41912;51.022;3.664;2023-03-14T01:37:09;11.60;99.90
56044;DHT22;41912;51.022;3.664;2023-03-14T01:39:37;11.60;99.90
56044;DHT22;41912;51.022;3.664;2023-03-14T01:42:03;11.60;99.90
56044;DHT22;41912;51.022;3.664;2023-03-14T01:44:45;11.70;99.90
56044;DHT22;41912;51.022;3.664;2023-03-14T01:47:11;11.70;99.90
56044;DHT22;41912;51.022;3.664;2023-03-14T01:49:36;11.70;99.90
56044;DHT22;41912;51.022;3.664;2023-03-14T01:54:40;11.70;99.90
56044;DHT22;41912;51.022;3.664;2023-03-14T01:59:38;11.60;99.90
56044;DHT22;41912;51.022;3.664;2023-03-14T02:02:07;11.70;99.90
56044;DHT22;41912;51.022;3.664;2023-03-14T02:04:36;11.70;99.90
56044;DHT22;41912;51.022;3.664;2023-03-14T02:09:37;11.60;99.90
56044;DHT22;41912;51.022;3.664;2023-03-14T02:12:04;11.60;99.90
56044;DHT22;41912;51.022;3.664;2023-03-14T02:14:35;11.60;99.90
56044;DHT22;41912;51.022;3.664;2023-03-14T02:17:02;11.60;99.90
56044;DHT22;41912;51.022;3.664;2023-03-14T02:22:22;11.60;99.90
56044;DHT22;41912;51.022;3.664;2023-03-14T02:25:51;11.60;99.90
56044;DHT22;41912;51.022;3.664;2023-03-14T02:27:45;11.60;99.90
56044;DHT22;41912;51.022;3.664;2023-03-14T02:30:24;11.60;99.90
56044;DHT22;41912;51.022;3.664;2023-03-14T02:33:17;11.60;99.90
56044;DHT22;41912;51.022;3.664;2023-03-14T02:35:48;11.60;99.90
56044;DHT22;41912;51.022;3.664;2023-03-14T02:40:46;11.40;99.90
56044;DHT22;41912;51.022;3.664;2023-03-14T02:43:12;11.40;99.90
56044;DHT22;41912;51.022;3.664;2023-03-14T02:45:41;11.40;99.90
56044;DHT22;41912;51.022;3.664;2023-03-14T02:48:13;11.40;99.90
56044;DHT22;41912;51.022;3.664;2023-03-14T02:50:39;11.40;99.90
56044;DHT22;41912;51.022;3.664;2023-03-14T02:53:05;11.30;99.90
56044;DHT22;41912;51.022;3.664;2023-03-14T02:55:31;11.30;99.90
56044;DHT22;41912;51.022;3.664;2023-03-14T02:57:56;11.30;99.90
56044;DHT22;41912;51.022;3.664;2023-03-14T03:00:22;11.40;99.90
56044;DHT22;41912;51.022;3.664;2023-03-14T03:02:48;11.40;99.90
56044;DHT22;41912;51.022;3.664;2023-03-14T03:05:13;11.30;99.90
56044;DHT22;41912;51.022;3.664;2023-03-14T03:07:39;11.30;99.90
56044;DHT22;41912;51.022;3.664;2023-03-14T03:10:05;11.30;99.90
56044;DHT22;41912;51.022;3.664;2023-03-14T03:12:31;11.30;99.90
56044;DHT22;41912;51.022;3.664;2023-03-14T03:14:56;11.40;99.90
56044;DHT22;41912;51.022;3.664;2023-03-14T03:17:22;11.40;99.90
56044;DHT22;41912;51.022;3.664;2023-03-14T03:19:48;11.40;99.90
56044;DHT22;41912;51.022;3.664;2023-03-14T03:22:13;11.40;99.90
56044;DHT22;41912;51.022;3.664;2023-03-14T03:24:39;11.50;99.90
56044;DHT22;41912;51.022;3.664;2023-03-14T03:27:04;11.50;99.90
56044;DHT22;41912;51.022;3.664;2023-03-14T03:29:30;11.50;99.90
56044;DHT22;41912;51.022;3.664;2023-03-14T03:31:56;11.50;99.90
56044;DHT22;41912;51.022;3.664;2023-03-14T03:34:22;11.50;99.90
56044;DHT22;41912;51.022;3.664;2023-03-14T03:36:47;11.60;99.90
56044;DHT22;41912;51.022;3.664;2023-03-14T03:39:13;11.60;99.90
56044;DHT22;41912;51.022;3.664;2023-03-14T03:41:38;11.50;99.90
56044;DHT22;41912;51.022;3.664;2023-03-14T03:44:04;11.60;99.90
56044;DHT22;41912;51.022;3.664;2023-03-14T03:46:31;11.60;99.90
56044;DHT22;41912;51.022;3.664;2023-03-14T03:48:59;11.60;99.90
56044;DHT22;41912;51.022;3.664;2023-03-14T03:51:25;11.60;99.90
56044;DHT22;41912;51.022;3.664;2023-03-14T03:53:51;11.60;99.90
56044;DHT22;41912;51.022;3.664;2023-03-14T03:56:17;11.60;99.90
56044;DHT22;41912;51.022;3.664;2023-03-14T03:58:43;11.60;99.90
56044;DHT22;41912;51.022;3.664;2023-03-14T04:01:09;11.60;99.90
56044;DHT22;41912;51.022;3.664;2023-03-14T04:03:36;11.60;99.90
56044;DHT22;41912;51.022;3.664;2023-03-14T04:06:10;11.60;99.90
56044;DHT22;41912;51.022;3.664;2023-03-14T04:08:36;11.60;99.90
56044;DHT22;41912;51.022;3.664;2023-03-14T04:11:02;11.50;99.90
56044;DHT22;41912;51.022;3.664;2023-03-14T04:13:29;11.50;99.90
56044;DHT22;41912;51.022;3.664;2023-03-14T04:15:55;11.40;99.90
56044;DHT22;41912;51.022;3.664;2023-03-14T04:18:21;11.40;99.90
56044;DHT22;41912;51.022;3.664;2023-03-14T04:20:57;11.40;99.90
56044;DHT22;41912;51.022;3.664;2023-03-14T04:23:23;11.40;99.90
56044;DHT22;41912;51.022;3.664;2023-03-14T04:25:53;11.40;99.90
56044;DHT22;41912;51.022;3.664;2023-03-14T04:28:18;11.50;99.90
56044;DHT22;41912;51.022;3.664;2023-03-14T04:30:44;11.50;99.90
56044;DHT22;41912;51.022;3.664;2023-03-14T04:33:10;11.50;99.90
56044;DHT22;41912;51.022;3.664;2023-03-14T04:35:37;11.50;99.90
56044;DHT22;41912;51.022;3.664;2023-03-14T04:38:03;11.50;99.90
56044;DHT22;41912;51.022;3.664;2023-03-14T04:40:29;11.50;99.90
56044;DHT22;41912;51.022;3.664;2023-03-14T04:42:54;11.50;99.90
56044;DHT22;41912;51.022;3.664;2023-03-14T04:45:20;11.50;99.90
56044;DHT22;41912;51.022;3.664;2023-03-14T04:47:46;11.60;99.90
56044;DHT22;41912;51.022;3.664;2023-03-14T04:50:11;11.60;99.90
56044;DHT22;41912;51.022;3.664;2023-03-14T04:52:37;11.60;99.90
56044;DHT22;41912;51.022;3.664;2023-03-14T04:55:03;11.60;99.90
56044;DHT22;41912;51.022;3.664;2023-03-14T04:57:29;11.60;99.90
56044;DHT22;41912;51.022;3.664;2023-03-14T04:59:54;11.60;99.90
56044;DHT22;41912;51.022;3.664;2023-03-14T05:02:20;11.60;99.90
56044;DHT22;41912;51.022;3.664;2023-03-14T05:04:45;11.60;99.90
56044;DHT22;41912;51.022;3.664;2023-03-14T05:07:11;11.50;99.90
56044;DHT22;41912;51.022;3.664;2023-03-14T05:09:37;11.50;99.90
56044;DHT22;41912;51.022;3.664;2023-03-14T05:12:02;11.50;99.90
56044;DHT22;41912;51.022;3.664;2023-03-14T05:14:28;11.50;99.90
56044;DHT22;41912;51.022;3.664;2023-03-14T05:16:54;11.50;99.90
56044;DHT22;41912;51.022;3.664;2023-03-14T05:19:19;11.60;99.90
56044;DHT22;41912;51.022;3.664;2023-03-14T05:21:45;11.50;99.90
56044;DHT22;41912;51.022;3.664;2023-03-14T05:24:10;11.50;99.90
56044;DHT22;41912;51.022;3.664;2023-03-14T05:26:36;11.50;99.90
56044;DHT22;41912;51.022;3.664;2023-03-14T05:29:02;11.40;99.90
56044;DHT22;41912;51.022;3.664;2023-03-14T05:31:27;11.40;99.90
56044;DHT22;41912;51.022;3.664;2023-03-14T05:33:53;11.40;99.90
56044;DHT22;41912;51.022;3.664;2023-03-14T05:36:18;11.30;99.90
56044;DHT22;41912;51.022;3.664;2023-03-14T05:38:44;11.30;99.90
56044;DHT22;41912;51.022;3.664;2023-03-14T05:41:10;11.30;99.90
56044;DHT22;41912;51.022;3.664;2023-03-14T05:43:35;11.30;99.90
56044;DHT22;41912;51.022;3.664;2023-03-14T05:46:01;11.20;99.90
56044;DHT22;41912;51.022;3.664;2023-03-14T05:48:27;11.10;99.90
56044;DHT22;41912;51.022;3.664;2023-03-14T05:50:57;11.00;99.90
56044;DHT22;41912;51.022;3.664;2023-03-14T05:53:23;10.80;99.90
56044;DHT22;41912;51.022;3.664;2023-03-14T05:55:55;10.70;99.90
56044;DHT22;41912;51.022;3.664;2023-03-14T05:58:20;10.60;99.90
56044;DHT22;41912;51.022;3.664;2023-03-14T06:00:46;10.60;99.90
56044;DHT22;41912;51.022;3.664;2023-03-14T06:03:12;10.50;99.90
56044;DHT22;41912;51.022;3.664;2023-03-14T06:05:38;10.40;99.90
56044;DHT22;41912;51.022;3.664;2023-03-14T06:08:04;10.40;99.90
56044;DHT22;41912;51.022;3.664;2023-03-14T06:10:29;10.30;99.90
56044;DHT22;41912;51.022;3.664;2023-03-14T06:12:55;10.30;99.90
56044;DHT22;41912;51.022;3.664;2023-03-14T06:15:20;10.20;99.90
56044;DHT22;41912;51.022;3.664;2023-03-14T06:17:46;10.10;99.90
56044;DHT22;41912;51.022;3.664;2023-03-14T06:20:12;10.10;99.90
56044;DHT22;41912;51.022;3.664;2023-03-14T06:22:38;10.00;99.90
56044;DHT22;41912;51.022;3.664;2023-03-14T06:25:05;10.00;99.90
56044;DHT22;41912;51.022;3.664;2023-03-14T06:27:30;10.00;99.90
56044;DHT22;41912;51.022;3.664;2023-03-14T06:29:56;9.90;99.90
56044;DHT22;41912;51.022;3.664;2023-03-14T06:32:22;9.90;99.90
56044;DHT22;41912;51.022;3.664;2023-03-14T06:34:47;9.80;99.90
56044;DHT22;41912;51.022;3.664;2023-03-14T06:37:13;9.90;99.90
56044;DHT22;41912;51.022;3.664;2023-03-14T06:39:39;9.80;99.90
56044;DHT22;41912;51.022;3.664;2023-03-14T06:42:05;9.80;99.90
56044;DHT22;41912;51.022;3.664;2023-03-14T06:44:31;9.80;99.90
56044;DHT22;41912;51.022;3.664;2023-03-14T06:46:56;9.80;99.90
56044;DHT22;41912;51.022;3.664;2023-03-14T06:49:22;9.80;99.90
56044;DHT22;41912;51.022;3.664;2023-03-14T06:51:48;9.70;99.90
56044;DHT22;41912;51.022;3.664;2023-03-14T06:54:14;9.70;99.90
56044;DHT22;41912;51.022;3.664;2023-03-14T06:56:39;9.70;99.90
56044;DHT22;41912;51.022;3.664;2023-03-14T06:59:05;9.70;99.90
56044;DHT22;41912;51.022;3.664;2023-03-14T07:01:31;9.70;99.90
56044;DHT22;41912;51.022;3.664;2023-03-14T07:04:00;9.70;99.90
56044;DHT22;41912;51.022;3.664;2023-03-14T07:06:26;9.70;99.90
56044;DHT22;41912;51.022;3.664;2023-03-14T07:08:52;9.70;99.90
56044;DHT22;41912;51.022;3.664;2023-03-14T07:11:17;9.70;99.90
56044;DHT22;41912;51.022;3.664;2023-03-14T07:13:43;9.70;99.90
56044;DHT22;41912;51.022;3.664;2023-03-14T07:16:09;9.60;99.90
56044;DHT22;41912;51.022;3.664;2023-03-14T07:18:34;9.60;99.90
56044;DHT22;41912;51.022;3.664;2023-03-14T07:21:00;9.60;99.90
56044;DHT22;41912;51.022;3.664;2023-03-14T07:23:26;9.50;99.90
56044;DHT22;41912;51.022;3.664;2023-03-14T07:25:51;9.50;99.90
56044;DHT22;41912;51.022;3.664;2023-03-14T07:28:19;9.50;99.90
56044;DHT22;41912;51.022;3.664;2023-03-14T07:30:46;9.50;99.90
56044;DHT22;41912;51.022;3.664;2023-03-14T07:33:12;9.40;99.90
56044;DHT22;41912;51.022;3.664;2023-03-14T07:35:38;9.40;99.90
56044;DHT22;41912;51.022;3.664;2023-03-14T07:38:03;9.40;99.90
56044;DHT22;41912;51.022;3.664;2023-03-14T07:40:29;9.40;99.90
56044;DHT22;41912;51.022;3.664;2023-03-14T07:42:55;9.30;99.90
56044;DHT22;41912;51.022;3.664;2023-03-14T07:45:20;9.20;99.90
56044;DHT22;41912;51.022;3.664;2023-03-14T07:47:46;9.10;99.90
56044;DHT22;41912;51.022;3.664;2023-03-14T07:50:12;9.10;99.90
56044;DHT22;41912;51.022;3.664;2023-03-14T07:52:37;9.00;99.90
56044;DHT22;41912;51.022;3.664;2023-03-14T07:55:03;9.00;99.90
56044;DHT22;41912;51.022;3.664;2023-03-14T07:57:29;9.00;99.90
56044;DHT22;41912;51.022;3.664;2023-03-14T07:59:55;8.90;99.90
56044;DHT22;41912;51.022;3.664;2023-03-14T08:02:20;8.80;99.90
56044;DHT22;41912;51.022;3.664;2023-03-14T08:04:48;8.70;99.90
56044;DHT22;41912;51.022;3.664;2023-03-14T08:07:14;8.70;99.90
56044;DHT22;41912;51.022;3.664;2023-03-14T08:09:39;8.70;99.90
56044;DHT22;41912;51.022;3.664;2023-03-14T08:12:05;8.70;99.90
56044;DHT22;41912;51.022;3.664;2023-03-14T08:14:31;8.70;99.90
56044;DHT22;41912;51.022;3.664;2023-03-14T08:16:57;8.60;99.90
56044;DHT22;41912;51.022;3.664;2023-03-14T08:19:22;8.50;99.90
56044;DHT22;41912;51.022;3.664;2023-03-14T08:21:48;8.60;99.90
56044;DHT22;41912;51.022;3.664;2023-03-14T08:24:13;8.60;99.90
56044;DHT22;41912;51.022;3.664;2023-03-14T08:26:39;8.60;99.90
56044;DHT22;41912;51.022;3.664;2023-03-14T08:29:05;8.60;99.90
56044;DHT22;41912;51.022;3.664;2023-03-14T08:31:30;8.50;99.90
56044;DHT22;41912;51.022;3.664;2023-03-14T08:33:59;8.60;99.90
56044;DHT22;41912;51.022;3.664;2023-03-14T08:36:25;8.50;99.90
56044;DHT22;41912;51.022;3.664;2023-03-14T08:38:51;8.50;99.90
56044;DHT22;41912;51.022;3.664;2023-03-14T08:41:16;8.50;99.90
56044;DHT22;41912;51.022;3.664;2023-03-14T08:43:42;8.40;99.90
56044;DHT22;41912;51.022;3.664;2023-03-14T08:46:08;8.40;99.90
56044;DHT22;41912;51.022;3.664;2023-03-14T08:48:33;8.40;99.90
56044;DHT22;41912;51.022;3.664;2023-03-14T08:51:13;8.50;99.90
56044;DHT22;41912;51.022;3.664;2023-03-14T08:53:39;8.40;99.90
56044;DHT22;41912;51.022;3.664;2023-03-14T08:56:06;8.40;99.90
56044;DHT22;41912;51.022;3.664;2023-03-14T08:58:35;8.40;99.90
56044;DHT22;41912;51.022;3.664;2023-03-14T09:01:04;8.40;99.90
56044;DHT22;41912;51.022;3.664;2023-03-14T09:03:30;8.40;99.90
56044;DHT22;41912;51.022;3.664;2023-03-14T09:05:55;8.40;99.90
56044;DHT22;41912;51.022;3.664;2023-03-14T09:08:21;8.40;99.90
56044;DHT22;41912;51.022;3.664;2023-03-14T09:10:47;8.40;99.90
56044;DHT22;41912;51.022;3.664;2023-03-14T09:13:12;8.40;99.90
56044;DHT22;41912;51.022;3.664;2023-03-14T09:15:38;8.40;99.90
56044;DHT22;41912;51.022;3.664;2023-03-14T09:18:04;8.40;99.90
56044;DHT22;41912;51.022;3.664;2023-03-14T09:20:30;8.40;99.90
56044;DHT22;41912;51.022;3.664;2023-03-14T09:22:55;8.40;99.90
56044;DHT22;41912;51.022;3.664;2023-03-14T09:25:21;8.30;99.90
56044;DHT22;41912;51.022;3.664;2023-03-14T09:27:46;8.30;99.90
56044;DHT22;41912;51.022;3.664;2023-03-14T09:30:12;8.30;99.90
56044;DHT22;41912;51.022;3.664;2023-03-14T09:32:38;8.30;99.90
56044;DHT22;41912;51.022;3.664;2023-03-14T09:35:04;8.30;99.90
56044;DHT22;41912;51.022;3.664;2023-03-14T09:37:29;8.30;99.90
56044;DHT22;41912;51.022;3.664;2023-03-14T09:39:55;8.30;99.90
56044;DHT22;41912;51.022;3.664;2023-03-14T09:42:26;8.30;99.90
56044;DHT22;41912;51.022;3.664;2023-03-14T09:44:55;8.30;99.90
56044;DHT22;41912;51.022;3.664;2023-03-14T09:47:23;8.20;99.90
56044;DHT22;41912;51.022;3.664;2023-03-14T09:49:49;8.10;99.90
56044;DHT22;41912;51.022;3.664;2023-03-14T09:52:33;8.20;99.90
56044;DHT22;41912;51.022;3.664;2023-03-14T09:55:03;8.10;99.90
56044;DHT22;41912;51.022;3.664;2023-03-14T09:57:29;8.10;99.90
56044;DHT22;41912;51.022;3.664;2023-03-14T10:00:03;8.00;99.90
56044;DHT22;41912;51.022;3.664;2023-03-14T10:02:41;8.00;99.90
56044;DHT22;41912;51.022;3.664;2023-03-14T10:05:18;8.10;99.90
56044;DHT22;41912;51.022;3.664;2023-03-14T10:07:45;8.00;99.90
56044;DHT22;41912;51.022;3.664;2023-03-14T10:10:19;8.00;99.90
56044;DHT22;41912;51.022;3.664;2023-03-14T10:12:47;8.00;99.90
56044;DHT22;41912;51.022;3.664;2023-03-14T10:15:15;7.90;99.90
56044;DHT22;41912;51.022;3.664;2023-03-14T10:17:48;7.90;99.90
56044;DHT22;41912;51.022;3.664;2023-03-14T10:25:44;7.90;99.90
56044;DHT22;41912;51.022;3.664;2023-03-14T10:28:31;7.80;99.90
56044;DHT22;41912;51.022;3.664;2023-03-14T10:30:58;7.80;99.90
56044;DHT22;41912;51.022;3.664;2023-03-14T10:33:27;7.80;99.90
56044;DHT22;41912;51.022;3.664;2023-03-14T10:35:56;7.80;99.90
56044;DHT22;41912;51.022;3.664;2023-03-14T10:38:24;7.70;99.90
56044;DHT22;41912;51.022;3.664;2023-03-14T10:40:52;7.70;99.90
56044;DHT22;41912;51.022;3.664;2023-03-14T10:43:22;7.70;99.90
56044;DHT22;41912;51.022;3.664;2023-03-14T10:45:57;7.70;99.90
56044;DHT22;41912;51.022;3.664;2023-03-14T10:48:35;7.70;99.90
56044;DHT22;41912;51.022;3.664;2023-03-14T10:51:18;7.60;99.90
56044;DHT22;41912;51.022;3.664;2023-03-14T10:53:49;7.60;99.90
56044;DHT22;41912;51.022;3.664;2023-03-14T10:56:21;7.50;99.90
56044;DHT22;41912;51.022;3.664;2023-03-14T10:58:48;7.50;99.90
56044;DHT22;41912;51.022;3.664;2023-03-14T11:03:43;7.40;99.90
56044;DHT22;41912;51.022;3.664;2023-03-14T11:06:18;7.30;99.90
56044;DHT22;41912;51.022;3.664;2023-03-14T11:11:22;7.40;99.90
56044;DHT22;41912;51.022;3.664;2023-03-14T11:13:52;7.50;99.90
56044;DHT22;41912;51.022;3.664;2023-03-14T11:19:08;7.70;99.90
56044;DHT22;41912;51.022;3.664;2023-03-14T11:21:52;7.70;99.90
56044;DHT22;41912;51.022;3.664;2023-03-14T11:30:05;8.00;99.90
56044;DHT22;41912;51.022;3.664;2023-03-14T11:33:08;8.10;99.90
56044;DHT22;41912;51.022;3.664;2023-03-14T11:36:07;8.10;99.90
56044;DHT22;41912;51.022;3.664;2023-03-14T11:38:56;8.20;99.90
56044;DHT22;41912;51.022;3.664;2023-03-14T11:41:27;8.20;99.90
56044;DHT22;41912;51.022;3.664;2023-03-14T11:43:56;8.20;99.90
56044;DHT22;41912;51.022;3.664;2023-03-14T11:46:26;8.30;99.90
56044;DHT22;41912;51.022;3.664;2023-03-14T11:51:38;8.30;99.90
56044;DHT22;41912;51.022;3.664;2023-03-14T11:59:30;8.20;99.90
56044;DHT22;41912;51.022;3.664;2023-03-14T12:02:21;8.40;99.90
56044;DHT22;41912;51.022;3.664;2023-03-14T12:13:28;8.30;99.90
56044;DHT22;41912;51.022;3.664;2023-03-14T12:15:56;8.30;99.90
56044;DHT22;41912;51.022;3.664;2023-03-14T12:18:50;8.30;99.90
56044;DHT22;41912;51.022;3.664;2023-03-14T12:21:16;8.40;99.90
56044;DHT22;41912;51.022;3.664;2023-03-14T12:23:51;8.30;99.90
56044;DHT22;41912;51.022;3.664;2023-03-14T12:26:26;8.30;99.90
56044;DHT22;41912;51.022;3.664;2023-03-14T12:42:12;8.30;99.90
56044;DHT22;41912;51.022;3.664;2023-03-14T12:44:39;8.20;99.90
56044;DHT22;41912;51.022;3.664;2023-03-14T12:49:48;8.30;99.90
56044;DHT22;41912;51.022;3.664;2023-03-14T12:52:19;8.20;99.90
56044;DHT22;41912;51.022;3.664;2023-03-14T13:00:59;7.90;99.90
56044;DHT22;41912;51.022;3.664;2023-03-14T13:03:50;7.80;99.90
56044;DHT22;41912;51.022;3.664;2023-03-14T13:12:00;7.70;99.90
56044;DHT22;41912;51.022;3.664;2023-03-14T13:14:29;7.60;99.90
56044;DHT22;41912;51.022;3.664;2023-03-14T13:16:55;7.60;99.90
56044;DHT22;41912;51.022;3.664;2023-03-14T13:19:26;7.70;99.90
56044;DHT22;41912;51.022;3.664;2023-03-14T13:22:05;7.80;99.90
56044;DHT22;41912;51.022;3.664;2023-03-14T13:24:34;7.90;99.90
56044;DHT22;41912;51.022;3.664;2023-03-14T13:27:00;7.90;99.90
56044;DHT22;41912;51.022;3.664;2023-03-14T13:29:28;8.00;99.90
56044;DHT22;41912;51.022;3.664;2023-03-14T13:32:02;8.10;99.90
56044;DHT22;41912;51.022;3.664;2023-03-14T13:34:35;8.10;99.90
56044;DHT22;41912;51.022;3.664;2023-03-14T13:37:01;8.10;99.90
56044;DHT22;41912;51.022;3.664;2023-03-14T13:39:28;8.20;99.90
56044;DHT22;41912;51.022;3.664;2023-03-14T13:41:58;8.20;99.90
56044;DHT22;41912;51.022;3.664;2023-03-14T13:44:30;8.30;99.90
56044;DHT22;41912;51.022;3.664;2023-03-14T13:47:00;8.30;99.90
56044;DHT22;41912;51.022;3.664;2023-03-14T13:49:28;8.30;99.90
56044;DHT22;41912;51.022;3.664;2023-03-14T13:51:54;8.30;99.90
56044;DHT22;41912;51.022;3.664;2023-03-14T13:54:21;8.30;99.90
56044;DHT22;41912;51.022;3.664;2023-03-14T13:56:48;8.20;99.90
56044;DHT22;41912;51.022;3.664;2023-03-14T13:59:24;8.10;99.90
56044;DHT22;41912;51.022;3.664;2023-03-14T14:01:50;8.00;99.90
56044;DHT22;41912;51.022;3.664;2023-03-14T14:04:20;7.90;99.90
56044;DHT22;41912;51.022;3.664;2023-03-14T14:06:58;7.80;99.90
56044;DHT22;41912;51.022;3.664;2023-03-14T14:09:28;7.80;99.90
56044;DHT22;41912;51.022;3.664;2023-03-14T14:14:37;7.80;99.90
56044;DHT22;41912;51.022;3.664;2023-03-14T14:17:06;7.80;99.90
56044;DHT22;41912;51.022;3.664;2023-03-14T14:19:33;7.80;99.90
56044;DHT22;41912;51.022;3.664;2023-03-14T14:22:00;7.90;99.90
56044;DHT22;41912;51.022;3.664;2023-03-14T14:24:30;7.90;99.90
56044;DHT22;41912;51.022;3.664;2023-03-14T14:27:07;7.90;99.90
56044;DHT22;41912;51.022;3.664;2023-03-14T14:29:34;7.90;99.90
56044;DHT22;41912;51.022;3.664;2023-03-14T14:34:45;8.00;99.90
56044;DHT22;41912;51.022;3.664;2023-03-14T14:37:22;8.10;99.90
56044;DHT22;41912;51.022;3.664;2023-03-14T14:39:52;8.10;99.90
56044;DHT22;41912;51.022;3.664;2023-03-14T14:42:33;8.20;99.90
56044;DHT22;41912;51.022;3.664;2023-03-14T14:44:59;8.20;99.90
56044;DHT22;41912;51.022;3.664;2023-03-14T14:47:28;8.20;99.90
56044;DHT22;41912;51.022;3.664;2023-03-14T14:49:56;8.20;99.90
56044;DHT22;41912;51.022;3.664;2023-03-14T14:52:44;8.30;99.90
56044;DHT22;41912;51.022;3.664;2023-03-14T14:55:17;8.30;99.90
56044;DHT22;41912;51.022;3.664;2023-03-14T14:57:52;8.30;99.90
56044;DHT22;41912;51.022;3.664;2023-03-14T15:00:23;8.30;99.90
56044;DHT22;41912;51.022;3.664;2023-03-14T15:02:54;8.30;99.90
56044;DHT22;41912;51.022;3.664;2023-03-14T15:05:25;8.30;99.90
56044;DHT22;41912;51.022;3.664;2023-03-14T15:07:52;8.30;99.90
56044;DHT22;41912;51.022;3.664;2023-03-14T15:10:20;8.30;99.90
56044;DHT22;41912;51.022;3.664;2023-03-14T15:12:46;8.30;99.90
56044;DHT22;41912;51.022;3.664;2023-03-14T15:15:13;8.30;99.90
56044;DHT22;41912;51.022;3.664;2023-03-14T15:17:39;8.30;99.90
56044;DHT22;41912;51.022;3.664;2023-03-14T15:20:09;8.30;99.90
56044;DHT22;41912;51.022;3.664;2023-03-14T15:22:41;8.30;99.90
56044;DHT22;41912;51.022;3.664;2023-03-14T15:25:08;8.30;99.90
56044;DHT22;41912;51.022;3.664;2023-03-14T15:27:35;8.40;99.90
56044;DHT22;41912;51.022;3.664;2023-03-14T15:30:01;8.30;99.90
56044;DHT22;41912;51.022;3.664;2023-03-14T15:32:27;8.30;99.90
56044;DHT22;41912;51.022;3.664;2023-03-14T15:34:54;8.30;99.90
56044;DHT22;41912;51.022;3.664;2023-03-14T15:37:20;8.30;99.90
56044;DHT22;41912;51.022;3.664;2023-03-14T15:39:46;8.40;99.90
56044;DHT22;41912;51.022;3.664;2023-03-14T15:42:12;8.40;99.90
56044;DHT22;41912;51.022;3.664;2023-03-14T15:44:38;8.40;99.90
56044;DHT22;41912;51.022;3.664;2023-03-14T15:47:08;8.40;99.90
56044;DHT22;41912;51.022;3.664;2023-03-14T15:49:34;8.50;99.90
56044;DHT22;41912;51.022;3.664;2023-03-14T15:52:00;8.50;99.90
56044;DHT22;41912;51.022;3.664;2023-03-14T15:54:26;8.50;99.90
56044;DHT22;41912;51.022;3.664;2023-03-14T15:56:57;8.50;99.90
56044;DHT22;41912;51.022;3.664;2023-03-14T15:59:24;8.60;99.90
56044;DHT22;41912;51.022;3.664;2023-03-14T16:01:50;8.60;99.90
56044;DHT22;41912;51.022;3.664;2023-03-14T16:04:16;8.60;99.90
56044;DHT22;41912;51.022;3.664;2023-03-14T16:06:42;8.70;99.90
56044;DHT22;41912;51.022;3.664;2023-03-14T16:09:12;8.70;99.90
56044;DHT22;41912;51.022;3.664;2023-03-14T16:11:38;8.70;99.90
56044;DHT22;41912;51.022;3.664;2023-03-14T16:14:05;8.70;99.90
56044;DHT22;41912;51.022;3.664;2023-03-14T16:16:31;8.70;99.90
56044;DHT22;41912;51.022;3.664;2023-03-14T16:18:56;8.70;99.90
56044;DHT22;41912;51.022;3.664;2023-03-14T16:21:22;8.70;99.90
56044;DHT22;41912;51.022;3.664;2023-03-14T16:23:48;8.80;99.90
56044;DHT22;41912;51.022;3.664;2023-03-14T16:26:17;8.70;99.90
56044;DHT22;41912;51.022;3.664;2023-03-14T16:28:43;8.70;99.90
56044;DHT22;41912;51.022;3.664;2023-03-14T16:31:12;8.70;99.90
56044;DHT22;41912;51.022;3.664;2023-03-14T16:33:38;8.70;99.90
56044;DHT22;41912;51.022;3.664;2023-03-14T16:36:06;8.60;99.90
56044;DHT22;41912;51.022;3.664;2023-03-14T16:38:36;8.60;99.90
56044;DHT22;41912;51.022;3.664;2023-03-14T16:41:25;8.60;99.90
56044;DHT22;41912;51.022;3.664;2023-03-14T16:43:54;8.60;99.90
56044;DHT22;41912;51.022;3.664;2023-03-14T16:46:20;8.60;99.90
56044;DHT22;41912;51.022;3.664;2023-03-14T16:48:46;8.50;99.90
56044;DHT22;41912;51.022;3.664;2023-03-14T16:51:13;8.40;99.90
56044;DHT22;41912;51.022;3.664;2023-03-14T16:53:39;8.40;99.90
56044;DHT22;41912;51.022;3.664;2023-03-14T16:56:05;8.40;99.90
56044;DHT22;41912;51.022;3.664;2023-03-14T16:58:30;8.40;99.90
56044;DHT22;41912;51.022;3.664;2023-03-14T17:00:56;8.40;99.90
56044;DHT22;41912;51.022;3.664;2023-03-14T17:03:23;8.40;99.90
56044;DHT22;41912;51.022;3.664;2023-03-14T17:05:50;8.40;99.90
56044;DHT22;41912;51.022;3.664;2023-03-14T17:08:18;8.40;99.90